createdAt,value
2022-12-23T00:01:28.814Z,81.15
2022-12-23T00:04:04.234Z,80.56
2022-12-23T00:06:37.457Z,81.09
2022-12-23T00:09:10.788Z,80.89
2022-12-23T00:12:12.290Z,80.96
2022-12-23T00:15:03.005Z,80.81
2022-12-23T00:17:37.863Z,81.09
2022-12-23T00:20:15.669Z,81.31
2022-12-23T00:23:06.473Z,80.76
2022-12-23T00:25:44.751Z,80.81
2022-12-23T00:28:19.758Z,81.18
2022-12-23T00:30:55.275Z,80.78
2022-12-23T00:33:30.552Z,81.05
2022-12-23T00:36:12.758Z,81.07
2022-12-23T00:39:03.242Z,80.88
2022-12-23T00:41:54.273Z,80.80
2022-12-23T00:44:27.380Z,80.35
2022-12-23T00:47:00.671Z,80.31
2022-12-23T00:49:46.781Z,80.51
2022-12-23T00:52:21.379Z,80.52
2022-12-23T00:54:54.470Z,80.02
2022-12-23T00:57:27.701Z,80.74
2022-12-23T01:00:00.881Z,80.97
2022-12-23T01:02:52.034Z,80.62
2022-12-23T01:05:40.657Z,80.49
2022-12-23T01:08:15.084Z,80.89
2022-12-23T01:10:48.141Z,80.57
2022-12-23T01:13:21.238Z,81.28
2022-12-23T01:15:54.577Z,80.86
2022-12-23T01:18:27.589Z,80.74
2022-12-23T01:21:02.802Z,80.86
2022-12-23T01:23:38.137Z,81.16
2022-12-23T01:26:12.861Z,81.37
2022-12-23T01:28:47.065Z,80.80
2022-12-23T01:31:20.150Z,80.74
2022-12-23T01:33:56.443Z,81.21
2022-12-23T01:36:29.517Z,81.02
2022-12-23T01:39:04.128Z,80.86
2022-12-23T01:41:54.742Z,81.26
2022-12-23T01:44:50.776Z,81.11
2022-12-23T01:47:31.871Z,80.78
2022-12-23T01:50:09.930Z,81.07
2022-12-23T01:52:46.929Z,80.72
2022-12-23T01:55:25.003Z,80.85
2022-12-23T01:58:05.597Z,80.70
2022-12-23T02:00:56.289Z,79.93
2022-12-23T02:03:44.808Z,80.02
2022-12-23T02:06:39.360Z,80.28
2022-12-23T02:09:20.521Z,80.57
2022-12-23T02:12:25.188Z,80.64
2022-12-23T02:15:29.580Z,80.45
2022-12-23T02:18:19.864Z,80.76
2022-12-23T02:21:20.918Z,80.11
2022-12-23T02:24:10.689Z,80.79
2022-12-23T02:27:19.831Z,80.14
2022-12-23T02:30:28.470Z,80.65
2022-12-23T02:33:22.010Z,80.29
2022-12-23T02:36:00.907Z,80.03
2022-12-23T02:38:41.645Z,80.01
2022-12-23T02:41:22.399Z,80.33
2022-12-23T02:44:00.955Z,80.55
2022-12-23T02:46:40.405Z,81.41
2022-12-23T02:49:21.502Z,81.25
2022-12-23T02:51:58.540Z,81.05
2022-12-23T02:54:34.984Z,81.47
2022-12-23T02:57:17.763Z,81.28
2022-12-23T02:59:53.182Z,81.07
2022-12-23T03:02:26.464Z,81.19
2022-12-23T03:05:01.271Z,80.97
2022-12-23T03:07:40.110Z,81.21
2022-12-23T03:10:23.432Z,80.64
2022-12-23T03:13:02.222Z,81.27
2022-12-23T03:15:44.018Z,80.85
2022-12-23T03:18:29.395Z,80.73
2022-12-23T03:21:10.054Z,80.57
2022-12-23T03:23:55.201Z,80.56
2022-12-23T03:26:35.682Z,80.11
2022-12-23T03:29:17.310Z,80.84
2022-12-23T03:31:52.077Z,80.69
2022-12-23T03:34:30.898Z,80.64
2022-12-23T03:37:11.103Z,80.89
2022-12-23T03:39:50.054Z,80.47
2022-12-23T03:42:28.151Z,80.25
2022-12-23T03:45:36.936Z,80.99
2022-12-23T03:48:06.314Z,80.46
2022-12-23T03:50:43.368Z,80.34
2022-12-23T03:53:21.608Z,80.62
2022-12-23T03:55:58.793Z,80.34
2022-12-23T03:58:37.947Z,80.17
2022-12-23T04:01:18.463Z,80.10
2022-12-23T04:04:01.298Z,79.93
2022-12-23T04:06:41.939Z,79.45
2022-12-23T04:09:22.111Z,79.66
2022-12-23T04:11:57.024Z,79.57
2022-12-23T04:14:29.965Z,79.45
2022-12-23T04:17:03.450Z,80.74
2022-12-23T04:19:36.615Z,80.45
2022-12-23T04:22:09.896Z,80.74
2022-12-23T04:24:44.373Z,80.78
2022-12-23T04:27:18.288Z,80.70
2022-12-23T04:29:51.569Z,80.53
2022-12-23T04:32:24.637Z,81.00
2022-12-23T04:34:57.955Z,80.63
2022-12-23T04:37:31.348Z,79.80
2022-12-23T04:40:07.589Z,79.55
2022-12-23T04:42:42.514Z,79.75
2022-12-23T04:45:16.090Z,80.12
2022-12-23T04:47:49.070Z,80.16
2022-12-23T04:50:22.104Z,80.31
2022-12-23T04:52:55.082Z,80.00
2022-12-23T04:55:29.200Z,80.47
2022-12-23T04:58:02.738Z,80.06
2022-12-23T05:00:41.566Z,79.68
2022-12-23T05:03:14.698Z,79.99
2022-12-23T05:05:50.519Z,79.94
2022-12-23T05:08:23.592Z,80.16
2022-12-23T05:10:58.161Z,80.80
2022-12-23T05:13:31.212Z,79.93
2022-12-23T05:16:05.198Z,80.17
2022-12-23T05:18:38.129Z,80.17
2022-12-23T05:21:10.963Z,80.74
2022-12-23T05:23:44.066Z,81.20
2022-12-23T05:26:18.288Z,81.35
2022-12-23T05:28:51.381Z,80.07
2022-12-23T05:31:24.680Z,79.69
2022-12-23T05:34:05.708Z,80.32
2022-12-23T05:36:39.528Z,79.74
2022-12-23T05:39:14.430Z,80.92
2022-12-23T05:41:49.028Z,80.07
2022-12-23T05:44:24.926Z,79.97
2022-12-23T05:46:57.998Z,80.53
2022-12-23T05:49:31.082Z,80.54
2022-12-23T05:52:04.398Z,80.10
2022-12-23T05:54:37.505Z,80.15
2022-12-23T05:57:12.116Z,80.50
2022-12-23T05:59:45.387Z,80.39
2022-12-23T06:02:18.507Z,80.11
2022-12-23T06:04:51.734Z,80.55
2022-12-23T06:07:24.835Z,80.08
2022-12-23T06:09:57.973Z,80.32
2022-12-23T06:12:32.594Z,79.66
2022-12-23T06:15:07.725Z,80.28
2022-12-23T06:17:40.820Z,80.22
2022-12-23T06:20:20.340Z,80.06
2022-12-23T06:22:54.088Z,80.14
2022-12-23T06:25:30.102Z,80.05
2022-12-23T06:28:04.483Z,79.75
2022-12-23T06:30:37.802Z,79.59
2022-12-23T06:33:12.993Z,79.71
2022-12-23T06:35:46.315Z,79.59
2022-12-23T06:38:19.504Z,78.87
2022-12-23T06:40:52.816Z,79.63
2022-12-23T06:43:27.229Z,79.72
2022-12-23T06:46:00.358Z,80.11
2022-12-23T06:48:33.175Z,80.09
2022-12-23T06:51:06.407Z,80.02
2022-12-23T06:53:39.854Z,79.80
2022-12-23T06:56:12.860Z,80.07
2022-12-23T06:58:46.999Z,80.59
2022-12-23T07:01:20.310Z,80.00
2022-12-23T07:03:53.112Z,79.82
2022-12-23T07:06:26.308Z,79.92
2022-12-23T07:08:59.229Z,79.87
2022-12-23T07:11:32.425Z,80.17
2022-12-23T07:14:06.736Z,80.15
2022-12-23T07:16:40.189Z,80.61
2022-12-23T07:19:14.224Z,80.59
2022-12-23T07:21:47.462Z,80.10
2022-12-23T07:24:20.496Z,79.84
2022-12-23T07:26:55.834Z,80.14
2022-12-23T07:29:30.027Z,80.42
2022-12-23T07:32:03.617Z,79.84
2022-12-23T07:34:38.383Z,80.00
2022-12-23T07:37:14.238Z,80.19
2022-12-23T07:39:47.647Z,80.14
2022-12-23T07:45:16.449Z,80.13
2022-12-23T07:47:53.987Z,80.67
2022-12-23T07:50:28.404Z,80.63
2022-12-23T07:53:01.563Z,80.45
2022-12-23T07:55:36.390Z,80.58
2022-12-23T07:58:10.214Z,80.45
2022-12-23T08:00:48.857Z,79.87
2022-12-23T08:03:23.587Z,80.24
2022-12-23T08:06:04.207Z,80.69
2022-12-23T08:08:43.446Z,79.45
2022-12-23T08:11:21.239Z,78.65
2022-12-23T08:13:55.233Z,78.37
2022-12-23T08:16:34.324Z,78.21
2022-12-23T08:19:11.839Z,78.19
2022-12-23T08:21:45.545Z,78.32
2022-12-23T08:24:20.149Z,77.96
2022-12-23T08:26:53.525Z,77.96
2022-12-23T08:29:35.789Z,77.88
2022-12-23T08:32:11.736Z,77.53
2022-12-23T08:34:46.136Z,77.21
2022-12-23T08:37:20.230Z,77.21
2022-12-23T08:39:54.123Z,77.15
2022-12-23T08:42:27.322Z,77.22
2022-12-23T08:45:01.247Z,77.26
2022-12-23T08:47:35.626Z,77.05
2022-12-23T08:50:09.371Z,77.23
2022-12-23T08:52:42.409Z,77.45
2022-12-23T08:55:15.566Z,77.38
2022-12-23T08:57:48.373Z,77.42
2022-12-23T09:00:21.710Z,77.37
2022-12-23T09:02:55.884Z,77.45
2022-12-23T09:05:29.002Z,77.60
2022-12-23T09:08:01.707Z,77.40
2022-12-23T09:10:36.299Z,77.65
2022-12-23T09:13:22.290Z,77.66
2022-12-23T09:16:00.334Z,77.77
2022-12-23T09:18:34.755Z,77.92
2022-12-23T09:21:09.980Z,77.73
2022-12-23T09:23:43.238Z,77.49
2022-12-23T09:26:19.796Z,77.92
2022-12-23T09:28:53.238Z,78.12
2022-12-23T09:31:36.859Z,77.98
2022-12-23T09:34:12.726Z,77.82
2022-12-23T09:36:49.123Z,78.00
2022-12-23T09:39:25.679Z,77.97
2022-12-23T09:42:08.832Z,77.92
2022-12-23T09:44:59.660Z,78.17
2022-12-23T09:47:35.308Z,76.93
2022-12-23T09:50:28.969Z,76.34
2022-12-23T09:53:07.827Z,76.58
2022-12-23T09:55:50.286Z,76.63
2022-12-23T09:58:30.903Z,76.57
2022-12-23T10:01:14.893Z,76.49
2022-12-23T10:04:16.176Z,76.45
2022-12-23T10:07:02.854Z,76.38
2022-12-23T10:09:40.662Z,76.21
2022-12-23T10:12:27.306Z,76.54
2022-12-23T10:15:04.425Z,76.52
2022-12-23T10:17:41.988Z,76.65
2022-12-23T10:20:20.542Z,76.72
2022-12-23T10:22:57.558Z,76.75
2022-12-23T10:25:36.373Z,76.66
2022-12-23T10:28:11.439Z,76.88
2022-12-23T10:31:11.177Z,77.28
2022-12-23T10:33:51.034Z,77.71
2022-12-23T10:36:35.882Z,77.07
2022-12-23T10:39:24.326Z,77.26
2022-12-23T10:42:10.092Z,77.19
2022-12-23T10:45:02.198Z,77.65
2022-12-23T10:47:59.405Z,77.72
2022-12-23T10:50:56.946Z,77.60
2022-12-23T10:53:41.438Z,77.34
2022-12-23T10:56:19.864Z,77.39
2022-12-23T10:58:58.467Z,77.70
2022-12-23T11:01:32.739Z,77.51
2022-12-23T11:04:10.278Z,77.64
2022-12-23T11:06:47.558Z,77.56
2022-12-23T11:09:25.383Z,77.62
2022-12-23T11:12:01.954Z,77.70
2022-12-23T11:14:38.409Z,77.75
2022-12-23T11:17:21.187Z,77.81
2022-12-23T11:20:12.238Z,77.92
2022-12-23T11:22:49.445Z,77.97
2022-12-23T11:25:32.564Z,77.94
2022-12-23T11:28:09.468Z,77.82
2022-12-23T11:30:55.493Z,77.77
2022-12-23T11:33:31.803Z,77.64
2022-12-23T11:36:07.753Z,77.60
2022-12-23T11:38:50.635Z,77.66
2022-12-23T11:41:26.987Z,78.07
2022-12-23T11:44:06.657Z,78.26
2022-12-23T11:46:40.095Z,77.69
2022-12-23T11:49:20.196Z,78.10
2022-12-23T11:52:02.799Z,78.08
2022-12-23T11:54:35.875Z,78.26
2022-12-23T11:57:18.086Z,78.57
2022-12-23T11:59:59.035Z,78.53
2022-12-23T12:02:37.097Z,78.52
2022-12-23T12:05:33.023Z,78.61
2022-12-23T12:08:16.026Z,78.56
2022-12-23T12:10:54.512Z,78.66
2022-12-23T12:13:30.831Z,78.19
2022-12-23T12:16:17.354Z,78.70
2022-12-23T12:18:55.622Z,78.65
2022-12-23T12:21:32.484Z,78.96
2022-12-23T12:24:18.703Z,78.42
2022-12-23T12:26:57.625Z,78.40
2022-12-23T12:29:38.562Z,78.44
2022-12-23T12:32:22.755Z,78.35
2022-12-23T12:35:01.744Z,78.05
2022-12-23T12:37:42.032Z,78.33
2022-12-23T12:40:25.299Z,77.69
2022-12-23T12:43:03.331Z,78.19
2022-12-23T12:45:45.219Z,78.17
2022-12-23T12:48:36.113Z,78.89
2022-12-23T12:51:17.128Z,79.39
2022-12-23T12:54:15.385Z,78.95
2022-12-23T12:56:51.148Z,78.79
2022-12-23T12:59:28.174Z,78.91
2022-12-23T13:02:22.648Z,78.93
2022-12-23T13:05:12.547Z,79.27
2022-12-23T13:08:05.626Z,79.29
2022-12-23T13:10:44.423Z,78.98
2022-12-23T13:13:29.902Z,78.97
2022-12-23T13:16:14.694Z,78.97
2022-12-23T13:18:56.141Z,78.73
2022-12-23T13:21:37.918Z,79.12
2022-12-23T13:24:23.023Z,78.94
2022-12-23T13:27:12.400Z,79.00
2022-12-23T13:29:58.308Z,78.69
2022-12-23T13:33:19.929Z,78.80
2022-12-23T13:36:06.722Z,78.83
2022-12-23T13:38:57.682Z,79.08
2022-12-23T13:41:34.851Z,79.17
2022-12-23T13:44:13.641Z,79.23
2022-12-23T13:46:57.596Z,79.09
2022-12-23T13:49:47.297Z,78.96
2022-12-23T13:52:30.636Z,79.19
2022-12-23T13:55:17.047Z,78.92
2022-12-23T13:57:59.886Z,79.04
2022-12-23T14:00:34.443Z,79.30
2022-12-23T14:03:24.687Z,79.24
2022-12-23T14:05:57.728Z,79.04
2022-12-23T14:08:42.802Z,78.90
2022-12-23T14:11:22.064Z,78.98
2022-12-23T14:13:59.416Z,78.99
2022-12-23T14:16:52.689Z,78.93
2022-12-23T14:19:52.577Z,78.96
2022-12-23T14:22:51.393Z,79.04
2022-12-23T14:25:49.915Z,79.27
2022-12-23T14:28:46.158Z,79.03
2022-12-23T14:31:31.536Z,79.77
2022-12-23T14:34:07.623Z,79.28
2022-12-23T14:36:40.622Z,79.06
2022-12-23T14:39:33.980Z,79.31
2022-12-23T14:42:14.826Z,79.15
2022-12-23T14:44:51.628Z,79.09
2022-12-23T14:47:34.924Z,79.64
2022-12-23T14:50:35.788Z,79.04
2022-12-23T14:53:26.229Z,79.70
2022-12-23T14:56:22.981Z,79.61
2022-12-23T14:59:19.528Z,79.10
2022-12-23T15:01:56.638Z,79.45
2022-12-23T15:04:33.506Z,79.44
2022-12-23T15:07:15.309Z,79.44
2022-12-23T15:09:55.707Z,79.47
2022-12-23T15:12:40.033Z,79.65
2022-12-23T15:15:16.693Z,79.49
2022-12-23T15:18:02.868Z,79.68
2022-12-23T15:20:36.753Z,79.47
2022-12-23T15:23:11.999Z,79.54
2022-12-23T15:25:55.180Z,79.36
2022-12-23T15:28:34.677Z,79.19
2022-12-23T15:31:27.701Z,79.10
2022-12-23T15:34:16.589Z,79.57
2022-12-23T15:36:58.236Z,79.72
2022-12-23T15:39:39.367Z,79.75
2022-12-23T15:42:23.059Z,79.81
2022-12-23T15:47:43.735Z,79.45
2022-12-23T15:50:22.228Z,79.48
2022-12-23T15:52:57.699Z,79.34
2022-12-23T15:55:33.202Z,79.52
2022-12-23T15:58:06.726Z,79.46
2022-12-23T16:00:44.860Z,79.59
2022-12-23T16:03:29.364Z,79.69
2022-12-23T16:06:21.434Z,79.29
2022-12-23T16:09:00.140Z,79.51
2022-12-23T16:11:43.440Z,79.81
2022-12-23T16:14:24.596Z,79.86
2022-12-23T16:17:00.296Z,79.61
2022-12-23T16:19:47.621Z,79.45
2022-12-23T16:22:29.113Z,79.70
2022-12-23T16:25:11.959Z,79.77
2022-12-23T16:27:48.306Z,79.64
2022-12-23T16:30:24.208Z,79.76
2022-12-23T16:32:59.645Z,79.83
2022-12-23T16:35:36.350Z,79.83
2022-12-23T16:38:17.690Z,79.73
2022-12-23T16:40:53.005Z,79.75
2022-12-23T16:43:28.388Z,79.50
2022-12-23T16:46:14.692Z,79.57
2022-12-23T16:48:51.452Z,79.57
2022-12-23T16:51:25.185Z,79.31
2022-12-23T16:54:14.308Z,79.58
2022-12-23T16:56:48.580Z,79.38
2022-12-23T16:59:21.949Z,79.75
2022-12-23T17:02:02.950Z,79.36
2022-12-23T17:04:42.239Z,79.74
2022-12-23T17:07:15.576Z,79.91
2022-12-23T17:09:50.278Z,80.49
2022-12-23T17:12:23.836Z,79.86
2022-12-23T17:15:18.201Z,79.79
2022-12-23T17:17:52.970Z,79.75
2022-12-23T17:20:28.413Z,79.35
2022-12-23T17:23:01.772Z,79.84
2022-12-23T17:25:38.687Z,79.82
2022-12-23T17:28:17.247Z,80.07
2022-12-23T17:30:55.339Z,79.49
2022-12-23T17:33:30.896Z,79.63
2022-12-23T17:36:04.640Z,79.89
2022-12-23T17:38:37.915Z,79.85
2022-12-23T17:41:21.396Z,80.16
2022-12-23T17:43:54.792Z,80.19
2022-12-23T17:46:28.464Z,79.80
2022-12-23T17:49:01.804Z,79.96
2022-12-23T17:51:36.480Z,79.73
2022-12-23T17:54:21.669Z,79.50
2022-12-23T17:56:58.983Z,79.66
2022-12-23T17:59:31.899Z,79.24
2022-12-23T18:02:16.250Z,79.49
2022-12-23T18:04:49.559Z,79.55
2022-12-23T18:07:29.098Z,80.01
2022-12-23T18:10:08.696Z,79.76
2022-12-23T18:12:48.316Z,79.35
2022-12-23T18:15:27.073Z,79.16
2022-12-23T18:18:03.528Z,79.42
2022-12-23T18:20:42.137Z,79.62
2022-12-23T18:23:22.549Z,79.37
2022-12-23T18:25:58.875Z,79.65
2022-12-23T18:28:42.539Z,79.61
2022-12-23T18:31:23.050Z,79.56
2022-12-23T18:33:58.058Z,79.81
2022-12-23T18:36:36.751Z,79.91
2022-12-23T18:39:29.344Z,79.05
2022-12-23T18:42:04.105Z,79.51
2022-12-23T18:44:39.151Z,79.41
2022-12-23T18:47:14.373Z,79.35
2022-12-23T18:49:57.453Z,78.98
2022-12-23T18:52:30.998Z,79.67
2022-12-23T18:55:08.033Z,79.77
2022-12-23T18:57:42.001Z,79.59
2022-12-23T19:00:30.776Z,79.63
2022-12-23T19:03:07.574Z,79.75
2022-12-23T19:05:43.439Z,79.93
2022-12-23T19:08:27.055Z,79.16
2022-12-23T19:11:03.283Z,80.27
2022-12-23T19:13:38.392Z,80.00
2022-12-23T19:16:16.037Z,79.86
2022-12-23T19:18:53.439Z,79.73
2022-12-23T19:21:28.172Z,79.89
2022-12-23T19:24:02.936Z,79.90
2022-12-23T19:26:41.312Z,80.04
2022-12-23T19:29:17.183Z,81.47
2022-12-23T19:31:55.714Z,80.15
2022-12-23T19:34:29.220Z,79.88
2022-12-23T19:37:02.106Z,80.10
2022-12-23T19:39:35.736Z,79.94
2022-12-23T19:42:10.928Z,79.71
2022-12-23T19:44:46.080Z,79.95
2022-12-23T19:47:27.278Z,79.84
2022-12-23T19:50:02.547Z,79.69
2022-12-23T19:52:37.950Z,80.00
2022-12-23T19:55:13.096Z,79.54
2022-12-23T19:57:48.395Z,80.06
2022-12-23T20:00:24.995Z,79.55
2022-12-23T20:03:10.728Z,79.58
2022-12-23T20:08:48.747Z,79.59
2022-12-23T20:11:26.356Z,79.98
2022-12-23T20:14:01.817Z,79.83
2022-12-23T20:16:43.223Z,79.85
2022-12-23T20:19:18.696Z,79.74
2022-12-23T20:21:55.398Z,79.78
2022-12-23T20:24:32.554Z,79.73
2022-12-23T20:27:11.942Z,80.22
2022-12-23T20:29:46.556Z,80.19
2022-12-23T20:32:22.086Z,80.02
2022-12-23T20:34:59.543Z,79.70
2022-12-23T20:37:35.069Z,80.19
2022-12-23T20:40:15.304Z,79.97
2022-12-23T20:42:48.549Z,79.49
2022-12-23T20:45:25.846Z,79.73
2022-12-23T20:47:59.242Z,79.86
2022-12-23T20:50:35.125Z,80.15
2022-12-23T20:53:11.617Z,79.63
2022-12-23T20:55:44.924Z,79.87
2022-12-23T20:58:35.511Z,79.67
2022-12-23T21:01:10.337Z,79.58
2022-12-23T21:03:43.761Z,79.74
2022-12-23T21:06:18.229Z,80.08
2022-12-23T21:08:52.448Z,79.54
2022-12-23T21:11:26.373Z,79.82
2022-12-23T21:14:06.900Z,79.57
2022-12-23T21:16:41.677Z,79.32
2022-12-23T21:19:18.052Z,79.69
2022-12-23T21:21:53.205Z,79.83
2022-12-23T21:24:26.469Z,79.37
2022-12-23T21:27:01.413Z,79.32
2022-12-23T21:29:36.847Z,79.68
2022-12-23T21:32:11.867Z,79.69
2022-12-23T21:34:45.070Z,79.15
2022-12-23T21:37:19.584Z,79.36
2022-12-23T21:39:52.869Z,79.14
2022-12-23T21:42:25.777Z,78.77
2022-12-23T21:44:58.677Z,78.95
2022-12-23T21:47:31.662Z,79.27
2022-12-23T21:50:04.912Z,79.54
2022-12-23T21:52:39.595Z,78.94
2022-12-23T21:55:15.727Z,79.93
2022-12-23T21:57:48.673Z,79.37
2022-12-23T22:00:21.828Z,79.68
2022-12-23T22:02:54.924Z,79.80
2022-12-23T22:05:28.210Z,79.76
2022-12-23T22:08:03.684Z,78.89
2022-12-23T22:10:38.444Z,79.44
2022-12-23T22:13:11.630Z,79.28
2022-12-23T22:15:44.568Z,79.08
2022-12-23T22:18:17.293Z,79.33
2022-12-23T22:20:50.368Z,79.14
2022-12-23T22:23:24.585Z,79.59
2022-12-23T22:25:57.694Z,79.92
2022-12-23T22:28:32.771Z,79.53
2022-12-23T22:31:08.729Z,79.85
2022-12-23T22:33:41.820Z,79.60
2022-12-23T22:36:15.412Z,79.78
2022-12-23T22:38:54.562Z,79.43
2022-12-23T22:41:29.384Z,79.53
2022-12-23T22:44:02.625Z,79.84
2022-12-23T22:46:35.742Z,79.39
2022-12-23T22:49:13.081Z,79.70
2022-12-23T22:51:46.231Z,79.83
2022-12-23T22:54:20.876Z,79.62
2022-12-23T22:56:56.789Z,79.66
2022-12-23T22:59:29.699Z,79.81
2022-12-23T23:02:02.543Z,79.91
2022-12-23T23:04:35.493Z,79.86
2022-12-23T23:07:08.805Z,79.84
2022-12-23T23:09:43.254Z,79.68
2022-12-23T23:12:16.618Z,80.14
2022-12-23T23:14:55.496Z,80.00
2022-12-23T23:17:29.486Z,79.70
2022-12-23T23:20:02.602Z,79.42
2022-12-23T23:22:38.152Z,79.38
2022-12-23T23:25:12.863Z,79.51
2022-12-23T23:27:45.714Z,79.45
2022-12-23T23:30:18.697Z,79.01
2022-12-23T23:32:51.571Z,79.67
2022-12-23T23:35:24.457Z,80.07
2022-12-23T23:37:57.381Z,79.47
2022-12-23T23:40:31.536Z,79.84
2022-12-23T23:43:04.667Z,79.64
2022-12-23T23:45:37.772Z,79.94
2022-12-23T23:48:11.960Z,79.85
2022-12-23T23:50:45.663Z,79.74
2022-12-23T23:53:18.645Z,80.08
2022-12-23T23:55:52.763Z,79.84
2022-12-23T23:58:25.614Z,79.79
